Time;durP1;ratioP1;P1;durP2;ratioP2;P2;SDS_P1;SDS_P2;PMS_P1;PMS_P2;Temp;Humidity;BMP_temperature;BMP_pressure;BME280_temperature;BME280_humidity;BME280_pressure;Samples;Min_cycle;Max_cycle;Signal;HPM_P1;HPM_P2
2022/01/11 00:00:11;;;;;;;58.85;21.88;;;;;;;3.57;80.24;101259.91;5025753;28;20514;-79
2022/01/11 00:02:42;;;;;;;62.47;22.52;;;;;;;3.59;79.97;101260.72;4992413;28;20045;-78
2022/01/11 00:05:18;;;;;;;61.65;19.02;;;;;;;3.58;80.04;101262.44;5017760;28;20048;-78
2022/01/11 00:07:46;;;;;;;63.03;21.70;;;;;;;3.57;80.08;101263.38;5012379;28;20040;-78
2022/01/11 00:10:21;;;;;;;57.53;21.23;;;;;;;3.58;80.29;101256.34;5033606;28;20045;-79
2022/01/11 00:12:48;;;;;;;63.38;22.70;;;;;;;3.57;79.99;101258.13;4997422;28;20045;-78
2022/01/11 00:15:15;;;;;;;66.97;22.88;;;;;;;3.58;80.04;101265.09;5022632;28;20078;-78
2022/01/11 00:17:42;;;;;;;72.43;23.00;;;;;;;3.57;80.14;101268.63;5012163;28;20056;-82
2022/01/11 00:20:12;;;;;;;64.00;22.52;;;;;;;3.57;80.30;101267.78;5023262;28;20048;-79
2022/01/11 00:22:57;;;;;;;64.35;22.75;;;;;;;3.57;80.22;101260.75;5010791;28;20668;-78
2022/01/11 00:25:24;;;;;;;63.75;22.92;;;;;;;3.56;80.10;101266.94;5027282;28;20166;-79
2022/01/11 00:27:50;;;;;;;57.83;22.05;;;;;;;3.55;80.35;101262.56;5053957;28;20041;-78
2022/01/11 00:30:18;;;;;;;47.83;17.45;;;;;;;3.57;80.04;101266.00;5004552;28;20045;-78
2022/01/11 00:32:50;;;;;;;68.35;24.40;;;;;;;3.56;80.37;101266.06;5009029;28;20124;-79
2022/01/11 00:35:21;;;;;;;63.80;22.42;;;;;;;3.57;80.28;101266.00;5006861;28;20087;-78
2022/01/11 00:37:48;;;;;;;60.92;20.67;;;;;;;3.57;80.34;101267.78;5004147;28;20420;-79
2022/01/11 00:40:15;;;;;;;67.45;23.10;;;;;;;3.56;80.35;101264.31;5009484;28;20048;-79
2022/01/11 00:42:44;;;;;;;66.30;23.92;;;;;;;3.58;80.30;101269.47;5030071;28;20488;-78
2022/01/11 00:45:12;;;;;;;71.50;23.42;;;;;;;3.57;80.40;101263.38;5017606;28;20087;-78
2022/01/11 00:47:43;;;;;;;66.13;23.05;;;;;;;3.56;80.56;101272.19;5023860;28;20041;-78
2022/01/11 00:50:10;;;;;;;65.50;23.98;;;;;;;3.58;80.23;101272.09;5036577;28;20044;-78
2022/01/11 00:52:37;;;;;;;66.60;22.10;;;;;;;3.57;80.44;101273.88;5008970;28;20052;-78
2022/01/11 00:55:04;;;;;;;64.57;22.08;;;;;;;3.57;80.28;101268.63;5031931;28;20048;-78
2022/01/11 00:57:30;;;;;;;61.80;21.55;;;;;;;3.57;80.44;101270.41;4997958;28;20071;-78
2022/01/11 00:59:58;;;;;;;66.05;21.77;;;;;;;3.57;80.41;101292.28;5007073;28;20068;-79
2022/01/11 01:02:25;;;;;;;67.65;22.27;;;;;;;3.58;80.43;101280.00;5011685;28;20502;-78
2022/01/11 01:04:52;;;;;;;59.30;21.75;;;;;;;3.56;80.07;101276.56;5049467;28;20045;-79
2022/01/11 01:07:18;;;;;;;60.97;20.45;;;;;;;3.56;80.13;101293.19;5002322;28;20049;-79
2022/01/11 01:09:59;;;;;;;62.45;20.73;;;;;;;3.58;80.43;101298.38;5019956;28;20053;-78
2022/01/11 01:12:29;;;;;;;61.63;21.38;;;;;;;3.56;80.20;101292.31;4958717;28;20051;-80
2022/01/11 01:14:56;;;;;;;68.10;24.10;;;;;;;3.57;80.31;101300.16;4992659;28;20437;-79
2022/01/11 01:17:23;;;;;;;59.63;21.52;;;;;;;3.56;80.35;101298.44;5009558;28;20045;-78
2022/01/11 01:19:50;;;;;;;65.00;22.73;;;;;;;3.57;80.44;101301.94;4991731;28;20057;-78
2022/01/11 01:22:17;;;;;;;58.75;21.00;;;;;;;3.57;80.27;101296.66;5012579;28;20049;-79
2022/01/11 01:24:44;;;;;;;68.80;24.20;;;;;;;3.56;80.42;101305.44;5006607;28;20051;-78
2022/01/11 01:27:10;;;;;;;60.47;21.17;;;;;;;3.54;80.30;101305.53;5008057;28;20057;-81
2022/01/11 01:29:40;;;;;;;70.57;22.25;;;;;;;3.56;80.45;101308.06;5012765;28;20045;-79
2022/01/11 01:32:11;;;;;;;56.63;18.35;;;;;;;3.55;80.30;101303.75;5025445;28;20052;-78
2022/01/11 01:34:37;;;;;;;54.17;18.08;;;;;;;3.56;80.56;101311.59;5044137;28;20053;-78
2022/01/11 01:37:07;;;;;;;57.95;20.25;;;;;;;3.56;80.32;101306.31;4995821;28;20487;-79
2022/01/11 01:39:35;;;;;;;53.03;20.98;;;;;;;3.57;80.56;101308.03;5010590;28;20083;-78
2022/01/11 01:42:03;;;;;;;53.38;19.55;;;;;;;3.58;80.43;101301.00;5030448;28;20049;-78
2022/01/11 01:44:32;;;;;;;66.22;21.98;;;;;;;3.56;80.60;101298.44;5003094;28;20045;-79
2022/01/11 01:46:59;;;;;;;57.60;19.92;;;;;;;3.57;80.50;101305.41;5024897;28;20395;-78
2022/01/11 01:49:27;;;;;;;51.72;18.55;;;;;;;3.57;80.66;101305.41;4987415;28;20132;-78
2022/01/11 01:51:54;;;;;;;44.42;15.82;;;;;;;3.58;80.43;101306.25;5000663;28;20119;-79
2022/01/11 01:54:23;;;;;;;56.50;19.63;;;;;;;3.58;80.46;101306.25;5014831;28;20041;-79
2022/01/11 01:56:49;;;;;;;56.03;19.02;;;;;;;3.57;80.60;101309.81;5003724;28;20048;-78
2022/01/11 01:59:16;;;;;;;56.38;19.65;;;;;;;3.56;80.59;101303.69;4999294;28;20045;-78
2022/01/11 02:01:46;;;;;;;61.25;18.65;;;;;;;3.57;80.51;101307.19;5009661;28;20072;-78
2022/01/11 02:04:17;;;;;;;55.35;20.35;;;;;;;3.57;80.44;101307.19;5011799;28;20487;-79
2022/01/11 02:06:45;;;;;;;45.25;16.15;;;;;;;3.57;80.59;101302.78;5000253;28;20045;-78
2022/01/11 02:09:15;;;;;;;51.05;19.38;;;;;;;3.57;80.51;101304.56;5017280;28;20038;-78
2022/01/11 02:11:44;;;;;;;46.58;18.30;;;;;;;3.57;80.49;101302.78;5001222;28;20046;-78
2022/01/11 02:14:11;;;;;;;53.80;18.48;;;;;;;3.56;80.68;101306.31;5020355;28;20088;-79
2022/01/11 02:16:38;;;;;;;53.83;18.95;;;;;;;3.56;80.38;101306.31;5006074;28;20094;-78
2022/01/11 02:19:08;;;;;;;51.67;19.67;;;;;;;3.54;80.50;101308.16;5012298;28;20114;-78
2022/01/11 02:21:34;;;;;;;52.67;19.85;;;;;;;3.54;80.43;101310.78;4991831;28;20705;-79
2022/01/11 02:24:01;;;;;;;45.70;15.25;;;;;;;3.56;80.39;101302.81;5003045;28;20059;-79
2022/01/11 02:26:32;;;;;;;49.95;17.05;;;;;;;3.56;80.61;101298.44;5004328;28;20052;-78
2022/01/11 02:28:59;;;;;;;43.47;17.80;;;;;;;3.55;80.53;101296.72;4998819;28;20049;-78
2022/01/11 02:31:26;;;;;;;58.05;18.88;;;;;;;3.56;80.43;101303.69;5001892;28;20045;-79
2022/01/11 02:33:58;;;;;;;54.97;19.35;;;;;;;3.55;80.31;101304.59;5036526;28;20051;-79
2022/01/11 02:36:33;;;;;;;56.20;19.80;;;;;;;3.54;80.48;101308.16;5023300;28;20068;-78
2022/01/11 02:39:14;;;;;;;42.83;15.93;;;;;;;3.54;80.50;101297.63;4962879;28;20399;-80
2022/01/11 02:41:56;;;;;;;56.88;19.27;;;;;;;3.47;80.50;101294.38;5032837;28;20120;-78
2022/01/11 02:44:31;;;;;;;65.43;19.10;;;;;;;3.53;80.58;101303.78;4996971;28;20403;-79
2022/01/11 02:46:59;;;;;;;53.80;19.05;;;;;;;3.54;80.45;101304.66;5004057;28;20407;-79
2022/01/11 02:49:28;;;;;;;58.05;18.70;;;;;;;3.55;80.69;101309.00;5015369;28;20069;-78
2022/01/11 02:52:03;;;;;;;45.72;17.38;;;;;;;3.54;80.30;101307.28;4986489;28;20041;-79
2022/01/11 02:54:30;;;;;;;49.30;18.70;;;;;;;3.54;80.63;101315.19;5019591;28;20063;-78
2022/01/11 02:57:19;;;;;;;45.40;15.30;;;;;;;3.50;80.33;101313.56;4978923;28;20065;-78
2022/01/11 02:59:48;;;;;;;57.22;18.83;;;;;;;3.48;80.56;101314.44;5021582;28;20497;-79
2022/01/11 03:02:21;;;;;;;51.78;19.13;;;;;;;3.48;80.30;101324.09;5008518;28;20053;-80
2022/01/11 03:04:50;;;;;;;51.50;19.60;;;;;;;3.51;80.59;101323.13;5033453;28;20533;-79
2022/01/11 03:07:21;;;;;;;41.38;15.38;;;;;;;3.49;80.43;101323.22;5016273;28;20430;-81
2022/01/11 03:10:02;;;;;;;43.72;15.55;;;;;;;3.51;80.58;101329.28;5006863;28;20056;-81
2022/01/11 03:12:37;;;;;;;47.10;16.67;;;;;;;3.52;80.83;101325.72;5012166;28;20045;-82
2022/01/11 03:15:04;;;;;;;47.70;17.52;;;;;;;3.52;80.56;101320.47;5033742;28;20132;-82
2022/01/11 03:17:31;;;;;;;45.58;16.80;;;;;;;3.53;80.72;101322.16;5013526;28;20041;-81
2022/01/11 03:19:59;;;;;;;50.60;19.30;;;;;;;3.54;80.37;101323.06;5021659;28;20518;-82
2022/01/11 03:22:25;;;;;;;54.35;18.73;;;;;;;3.53;80.67;101330.06;5018061;28;20041;-82
2022/01/11 03:24:52;;;;;;;50.17;19.88;;;;;;;3.52;80.52;101323.09;5036152;28;20385;-81
2022/01/11 03:27:20;;;;;;;46.85;17.90;;;;;;;3.52;80.37;101328.34;5031615;28;20451;-82
2022/01/11 03:29:47;;;;;;;48.30;18.95;;;;;;;3.53;80.43;101321.31;5026699;28;20089;-82
2022/01/11 03:32:18;;;;;;;48.53;18.45;;;;;;;3.53;80.43;101321.31;5008859;28;20042;-81
2022/01/11 03:35:06;;;;;;;55.90;18.02;;;;;;;3.53;80.50;101321.31;5004232;28;20432;-82
2022/01/11 03:37:33;;;;;;;56.15;19.73;;;;;;;3.52;80.44;101325.72;5002771;28;20042;-81
2022/01/11 03:40:01;;;;;;;47.67;17.10;;;;;;;3.52;80.52;101328.34;5026828;28;20049;-81
2022/01/11 03:42:29;;;;;;;46.38;15.48;;;;;;;3.51;80.58;101324.03;4987127;28;20037;-81
2022/01/11 03:44:56;;;;;;;50.35;17.92;;;;;;;3.52;80.57;101333.59;5009391;28;20056;-81
2022/01/11 03:47:22;;;;;;;57.03;19.88;;;;;;;3.52;80.49;101332.75;5004605;28;20041;-82
2022/01/11 03:49:50;;;;;;;50.53;17.92;;;;;;;3.51;80.38;101346.78;5009822;28;20118;-82
2022/01/11 03:52:17;;;;;;;50.30;16.63;;;;;;;3.51;80.71;101345.03;5033404;28;20052;-82
2022/01/11 03:55:02;;;;;;;43.83;16.05;;;;;;;3.51;80.71;101346.78;5010136;28;20084;-82
2022/01/11 03:57:39;;;;;;;45.53;16.70;;;;;;;3.50;80.48;101347.69;4994166;28;20411;-82
2022/01/11 04:00:11;;;;;;;47.42;18.52;;;;;;;3.47;80.45;101339.00;5024057;28;20423;-81
2022/01/11 04:02:43;;;;;;;51.30;19.27;;;;;;;3.50;80.66;101345.91;5008941;28;20060;-81
2022/01/11 04:05:14;;;;;;;43.38;16.73;;;;;;;3.51;80.44;101344.16;5035688;28;20092;-81
2022/01/11 04:07:41;;;;;;;48.53;17.13;;;;;;;3.50;80.50;101339.81;5017754;28;20048;-81
2022/01/11 04:10:10;;;;;;;44.28;17.15;;;;;;;3.50;80.67;101339.81;5016711;28;20496;-81
2022/01/11 04:12:37;;;;;;;53.78;17.63;;;;;;;3.51;80.64;101344.16;5047042;28;20057;-81
2022/01/11 04:15:05;;;;;;;49.08;17.42;;;;;;;3.49;80.39;101341.59;5024908;28;20056;-82
2022/01/11 04:17:33;;;;;;;46.97;14.93;;;;;;;3.50;80.72;101332.78;5001315;28;20069;-81
2022/01/11 04:20:00;;;;;;;45.72;17.58;;;;;;;3.50;80.80;101345.91;5010687;28;20046;-81
2022/01/11 04:22:27;;;;;;;30.90;12.50;;;;;;;3.51;80.77;101344.16;5020021;28;20449;-82
2022/01/11 04:24:54;;;;;;;38.22;15.32;;;;;;;3.50;80.87;101345.06;5004773;28;20161;-81
2022/01/11 04:27:21;;;;;;;48.65;17.02;;;;;;;3.51;80.69;101347.66;4996502;28;20046;-81
2022/01/11 04:29:49;;;;;;;42.90;16.40;;;;;;;3.50;80.77;101345.06;5021530;28;20646;-82
2022/01/11 04:32:17;;;;;;;38.00;15.48;;;;;;;3.51;80.74;101349.41;4999740;28;20542;-81
2022/01/11 04:34:44;;;;;;;36.72;14.15;;;;;;;3.49;80.85;101352.09;5012436;28;20045;-81
2022/01/11 04:37:11;;;;;;;41.72;16.88;;;;;;;3.50;80.87;101353.81;4996647;28;20045;-81
2022/01/11 04:39:38;;;;;;;50.55;15.82;;;;;;;3.50;80.67;101359.06;5019379;28;20162;-81
2022/01/11 04:42:05;;;;;;;42.92;13.98;;;;;;;3.51;80.80;101362.53;5010501;28;20045;-82
2022/01/11 04:44:32;;;;;;;38.35;13.23;;;;;;;3.51;80.91;101373.03;5023309;28;20055;-81
2022/01/11 04:46:59;;;;;;;34.95;14.18;;;;;;;3.52;80.59;101373.00;5007396;28;20054;-81
2022/01/11 04:49:27;;;;;;;56.67;24.20;;;;;;;3.52;80.68;101367.75;5019335;28;20091;-81
2022/01/11 04:51:55;;;;;;;49.47;20.73;;;;;;;3.52;80.73;101372.16;5012735;28;20045;-81
2022/01/11 04:54:22;;;;;;;45.22;18.20;;;;;;;3.50;80.82;101376.59;5039725;28;20396;-81
2022/01/11 04:56:49;;;;;;;46.30;20.02;;;;;;;3.50;80.76;101371.34;5009525;28;20045;-81
2022/01/11 04:59:16;;;;;;;37.25;14.32;;;;;;;3.52;80.82;101380.88;5020517;28;20045;-81
2022/01/11 05:01:43;;;;;;;48.80;20.00;;;;;;;3.51;80.80;101379.16;5022593;28;20049;-81
2022/01/11 05:04:13;;;;;;;52.95;20.40;;;;;;;3.52;80.64;101382.66;5034331;28;20424;-81
2022/01/11 05:06:40;;;;;;;42.08;17.48;;;;;;;3.51;80.77;101368.66;5038942;28;20511;-82
2022/01/11 05:09:07;;;;;;;49.53;18.23;;;;;;;3.51;80.79;101373.91;5017707;28;20106;-81
2022/01/11 05:11:35;;;;;;;51.80;20.92;;;;;;;3.51;80.57;101386.16;4990827;28;20045;-81
2022/01/11 05:14:02;;;;;;;53.28;22.30;;;;;;;3.51;80.71;101387.06;5031085;28;20072;-81
2022/01/11 05:16:37;;;;;;;52.20;22.80;;;;;;;3.51;80.78;101389.69;4984393;28;20053;-82
2022/01/11 05:19:07;;;;;;;48.58;21.25;;;;;;;3.49;80.63;101386.25;5019335;28;20124;-81
2022/01/11 05:21:35;;;;;;;47.80;20.23;;;;;;;3.49;80.80;101380.97;5006834;28;20057;-82
2022/01/11 05:24:02;;;;;;;38.90;16.42;;;;;;;3.50;80.69;101385.31;5016794;28;20033;-82
2022/01/11 05:26:30;;;;;;;38.15;17.13;;;;;;;3.50;80.72;101390.56;5031668;28;20049;-82
2022/01/11 05:28:58;;;;;;;44.70;17.15;;;;;;;3.50;80.89;101394.97;5029557;28;20045;-82
2022/01/11 05:31:25;;;;;;;42.03;17.13;;;;;;;3.50;81.01;101389.72;5028585;28;20440;-82
2022/01/11 05:33:52;;;;;;;42.53;16.70;;;;;;;3.48;80.99;101398.47;5016092;28;20151;-81
2022/01/11 05:36:19;;;;;;;43.58;17.42;;;;;;;3.49;80.85;101407.25;5002741;28;20045;-82
2022/01/11 05:38:46;;;;;;;40.58;16.80;;;;;;;3.48;81.02;101406.38;5040930;28;20057;-82
2022/01/11 05:41:13;;;;;;;36.55;14.55;;;;;;;3.48;80.94;101403.75;5030407;28;20099;-83
2022/01/11 05:43:41;;;;;;;40.72;17.60;;;;;;;3.48;81.11;101408.13;5027110;28;20045;-81
2022/01/11 05:46:08;;;;;;;41.38;17.33;;;;;;;3.48;81.15;101413.38;5015096;28;20049;-82
2022/01/11 05:48:37;;;;;;;40.97;17.40;;;;;;;3.48;81.22;101408.13;5018912;28;20049;-83
2022/01/11 05:51:04;;;;;;;43.13;16.15;;;;;;;3.50;81.09;101415.97;4999448;28;20103;-80
2022/01/11 05:53:31;;;;;;;43.45;16.67;;;;;;;3.49;81.18;101412.50;4990849;28;20060;-81
2022/01/11 05:55:58;;;;;;;40.72;17.10;;;;;;;3.49;80.94;101415.13;5024720;28;20037;-81
2022/01/11 05:58:24;;;;;;;36.17;15.68;;;;;;;3.48;80.83;101411.63;5020768;28;20064;-81
2022/01/11 06:00:51;;;;;;;38.03;15.95;;;;;;;3.48;81.15;101419.50;5019160;28;20411;-81
2022/01/11 06:03:18;;;;;;;43.33;15.73;;;;;;;3.49;80.94;101425.63;5014555;28;20041;-81
2022/01/11 06:05:48;;;;;;;36.85;16.67;;;;;;;3.49;81.03;101425.63;5005231;28;20403;-81
2022/01/11 06:08:17;;;;;;;31.55;12.00;;;;;;;3.50;81.04;101424.72;5014918;28;20507;-81
2022/01/11 06:10:47;;;;;;;35.05;14.85;;;;;;;3.50;81.06;101426.47;5018844;28;20127;-81
2022/01/11 06:13:19;;;;;;;41.75;15.70;;;;;;;3.48;80.94;101427.38;5012721;28;20060;-82
2022/01/11 06:15:50;;;;;;;35.22;13.45;;;;;;;3.48;81.13;101431.78;5020226;28;20057;-81
2022/01/11 06:18:19;;;;;;;36.60;14.35;;;;;;;3.50;80.95;101431.75;5046576;28;20144;-82
2022/01/11 06:21:09;;;;;;;40.15;16.20;;;;;;;3.49;81.11;101433.50;4978276;28;20053;-82
2022/01/11 06:23:37;;;;;;;34.97;13.65;;;;;;;3.48;81.12;101431.78;5002636;28;20092;-81
2022/01/11 06:26:04;;;;;;;38.22;15.80;;;;;;;3.48;80.95;101435.25;5018720;28;20077;-81
2022/01/11 06:28:31;;;;;;;38.63;15.10;;;;;;;3.49;80.98;101438.75;4990520;28;20042;-82
2022/01/11 06:30:58;;;;;;;36.15;14.73;;;;;;;3.48;81.06;101431.78;4983804;28;20053;-80
2022/01/11 06:33:27;;;;;;;41.55;14.82;;;;;;;3.48;81.11;101434.41;5031041;28;20052;-80
2022/01/11 06:35:54;;;;;;;43.72;15.77;;;;;;;3.49;81.03;101446.63;4997973;28;20155;-82
2022/01/11 06:38:21;;;;;;;34.92;15.50;;;;;;;3.50;80.99;101452.75;5033475;28;20052;-80
2022/01/11 06:40:49;;;;;;;42.00;14.90;;;;;;;3.50;81.29;101452.75;5007995;28;20046;-79
2022/01/11 06:43:16;;;;;;;33.53;13.98;;;;;;;3.50;81.27;101453.59;5014384;28;20037;-79
2022/01/11 06:45:43;;;;;;;35.30;14.27;;;;;;;3.50;81.06;101450.97;5014344;28;20136;-79
2022/01/11 06:48:14;;;;;;;40.53;16.67;;;;;;;3.48;81.02;101451.00;5017625;28;20053;-79
2022/01/11 06:50:40;;;;;;;39.50;14.63;;;;;;;3.47;81.44;101454.56;5030502;28;20410;-79
2022/01/11 06:53:09;;;;;;;42.40;15.48;;;;;;;3.50;81.19;101463.25;5032115;28;20085;-79
2022/01/11 06:55:40;;;;;;;;;;;;;;;3.31;81.41;101469.09;5040861;28;20122;-79
2022/01/11 06:58:08;;;;;;;36.95;13.10;;;;;;;3.43;81.43;101466.06;5034654;28;19927;-79
2022/01/11 07:00:36;;;;;;;39.10;14.82;;;;;;;3.46;81.15;101470.34;5021161;28;20539;-79
2022/01/11 07:03:09;;;;;;;40.55;13.93;;;;;;;3.45;81.19;101468.66;5015172;28;20038;-79
2022/01/11 07:05:46;;;;;;;34.67;15.52;;;;;;;3.47;81.14;101472.09;5020585;28;20091;-79
2022/01/11 07:08:14;;;;;;;33.00;12.10;;;;;;;3.47;81.17;101467.69;5010389;28;20132;-79
2022/01/11 07:10:42;;;;;;;37.13;13.65;;;;;;;3.45;81.47;101474.75;5005221;28;20049;-79
2022/01/11 07:13:09;;;;;;;34.80;13.57;;;;;;;3.47;81.43;101487.84;5009210;28;20047;-79
2022/01/11 07:15:38;;;;;;;32.53;13.48;;;;;;;3.48;81.21;101487.78;5014395;28;20053;-79
2022/01/11 07:18:10;;;;;;;38.60;14.27;;;;;;;3.48;81.38;101486.94;5012094;28;20041;-79
2022/01/11 07:20:41;;;;;;;40.95;14.05;;;;;;;3.48;81.50;101493.03;5026794;28;20059;-79
2022/01/11 07:23:09;;;;;;;41.20;13.95;;;;;;;3.47;81.19;101491.31;5014869;28;20052;-79
2022/01/11 07:25:36;;;;;;;36.88;13.60;;;;;;;3.48;81.36;101489.53;5012740;28;20048;-79
2022/01/11 07:28:06;;;;;;;39.50;13.90;;;;;;;3.47;81.35;101495.72;5029762;28;20396;-79
2022/01/11 07:30:34;;;;;;;29.83;12.93;;;;;;;3.47;81.40;101495.72;5020447;28;20045;-79
2022/01/11 07:33:01;;;;;;;34.83;13.07;;;;;;;3.46;81.18;101494.88;5030043;28;20139;-79
2022/01/11 07:35:29;;;;;;;30.95;13.48;;;;;;;3.46;81.46;101507.13;5030692;28;20132;-81
2022/01/11 07:37:58;;;;;;;31.65;12.50;;;;;;;3.47;81.43;101499.19;5000572;28;20049;-79
2022/01/11 07:40:25;;;;;;;34.22;13.02;;;;;;;3.47;81.25;101501.81;5016791;28;20561;-79
2022/01/11 07:42:58;;;;;;;34.33;15.02;;;;;;;3.46;81.36;101504.50;5023778;28;20045;-79
2022/01/11 07:45:43;;;;;;;34.58;12.45;;;;;;;3.47;81.47;101519.34;5000250;28;20048;-79
2022/01/11 07:48:13;;;;;;;37.00;13.35;;;;;;;3.45;81.43;101513.28;5004949;28;20192;-79
2022/01/11 07:50:45;;;;;;;39.40;14.50;;;;;;;3.43;81.52;101513.31;5013234;28;20037;-79
2022/01/11 07:53:12;;;;;;;31.05;14.27;;;;;;;3.45;81.45;101523.78;5045404;28;20421;-79
2022/01/11 07:55:45;;;;;;;;;;;;;;;3.30;81.56;101526.91;5012159;28;20049;-79
2022/01/11 07:58:15;;;;;;;44.30;18.67;;;;;;;3.41;81.35;101525.66;5018326;28;19964;-79
2022/01/11 08:00:43;;;;;;;49.00;18.77;;;;;;;3.43;81.55;101533.47;5033236;28;20064;-79
2022/01/11 08:03:14;;;;;;;60.50;22.77;;;;;;;3.44;81.32;101536.06;5028310;28;20060;-79
2022/01/11 08:05:52;;;;;;;51.10;18.75;;;;;;;3.46;81.29;101544.78;4986919;28;20053;-79
2022/01/11 08:08:21;;;;;;;39.53;16.27;;;;;;;3.45;81.53;101542.19;5032381;28;20123;-81
2022/01/11 08:10:51;;;;;;;41.33;16.63;;;;;;;3.46;81.53;101544.78;5001642;28;20145;-80
2022/01/11 08:13:18;;;;;;;38.50;15.93;;;;;;;3.46;81.68;101547.41;5020423;28;20119;-79
2022/01/11 08:15:46;;;;;;;44.15;18.02;;;;;;;3.46;81.68;101550.03;5039418;28;20059;-79
2022/01/11 08:18:12;;;;;;;40.08;16.10;;;;;;;3.48;81.86;101549.94;5041339;28;20071;-79
2022/01/11 08:20:44;;;;;;;41.17;18.70;;;;;;;3.48;81.80;101545.56;5028717;28;20053;-80
2022/01/11 08:23:12;;;;;;;37.50;16.42;;;;;;;3.50;81.66;101557.78;5034342;28;20072;-80
2022/01/11 08:25:40;;;;;;;37.83;16.10;;;;;;;3.51;81.85;101552.50;5021586;28;20492;-80
2022/01/11 08:28:09;;;;;;;38.58;16.85;;;;;;;3.51;81.80;101551.63;5018625;28;20383;-79
2022/01/11 08:30:40;;;;;;;44.55;17.65;;;;;;;3.51;81.70;101549.00;5022910;28;20056;-79
2022/01/11 08:33:12;;;;;;;43.88;17.50;;;;;;;3.52;81.88;101562.09;5009113;28;20057;-81
2022/01/11 08:35:41;;;;;;;39.03;16.70;;;;;;;3.53;81.82;101557.69;5017415;28;20050;-80
2022/01/11 08:38:11;;;;;;;25.10;11.77;;;;;;;3.64;88.13;101559.09;5028914;28;20389;-78
2022/01/11 08:40:38;;;;;;;53.47;17.63;;;;;;;3.79;84.99;101552.47;5040766;28;20064;-79
2022/01/11 08:43:07;;;;;;;41.38;18.45;;;;;;;3.80;83.35;101558.59;5015552;28;20064;-79
2022/01/11 08:45:37;;;;;;;39.10;15.85;;;;;;;3.78;82.86;101556.00;5009841;28;20116;-79
2022/01/11 08:48:08;;;;;;;47.42;19.33;;;;;;;3.75;82.75;101565.75;5017892;28;20447;-80
2022/01/11 08:50:42;;;;;;;50.22;20.23;;;;;;;3.69;82.75;101562.41;5016523;28;20045;-79
2022/01/11 08:53:08;;;;;;;54.70;21.33;;;;;;;3.68;82.58;101565.09;5006323;28;20515;-79
2022/01/11 08:55:37;;;;;;;56.15;22.80;;;;;;;3.68;82.46;101565.09;5029695;28;20102;-79
2022/01/11 08:58:06;;;;;;;43.33;19.95;;;;;;;3.65;82.21;101563.41;5023382;28;20056;-79
2022/01/11 09:00:33;;;;;;;47.75;20.48;;;;;;;3.66;82.32;101569.53;5031621;28;20053;-80
2022/01/11 09:03:06;;;;;;;48.58;18.10;;;;;;;3.66;82.48;101564.28;5002608;28;20052;-79
2022/01/11 09:05:39;;;;;;;;;;;;;;;3.48;82.43;101565.72;5022831;28;20053;-81
2022/01/11 09:08:08;;;;;;;45.75;18.98;;;;;;;3.61;82.57;101566.19;5022309;28;20294;-79
2022/01/11 09:10:34;;;;;;;42.08;18.08;;;;;;;3.62;82.33;101565.28;5001587;28;20057;-79
2022/01/11 09:13:01;;;;;;;46.35;17.58;;;;;;;3.62;82.37;101563.53;5016550;28;20487;-80
2022/01/11 09:15:28;;;;;;;51.90;19.05;;;;;;;3.64;82.34;101566.09;5002626;28;20115;-80
2022/01/11 09:17:56;;;;;;;48.00;18.27;;;;;;;3.65;82.35;101575.69;5006539;28;20049;-80
2022/01/11 09:20:23;;;;;;;39.80;16.10;;;;;;;3.65;82.51;101579.19;5006082;28;20130;-80
2022/01/11 09:22:51;;;;;;;41.70;15.57;;;;;;;3.65;82.50;101576.56;5014484;28;20075;-80
2022/01/11 09:25:20;;;;;;;34.17;16.20;;;;;;;3.62;82.86;101579.28;5015836;28;20637;-79
2022/01/11 09:27:59;;;;;;;41.85;16.10;;;;;;;3.65;82.60;101580.94;5022925;28;20158;-80
2022/01/11 09:30:26;;;;;;;35.13;13.73;;;;;;;3.68;82.38;101578.22;5032197;28;21021;-80
2022/01/11 09:32:55;;;;;;;44.75;15.90;;;;;;;3.67;82.07;101584.41;5009300;28;20504;-80
2022/01/11 09:35:25;;;;;;;39.53;16.08;;;;;;;3.70;82.03;101585.16;5023757;28;20045;-80
2022/01/11 09:38:02;;;;;;;43.97;15.25;;;;;;;3.68;82.02;101591.34;5014429;28;20052;-79
2022/01/11 09:40:30;;;;;;;37.28;14.25;;;;;;;3.66;82.04;101587.91;5032896;28;20049;-79
2022/01/11 09:43:04;;;;;;;42.55;14.00;;;;;;;3.71;81.93;101588.63;5012955;28;20147;-81
2022/01/11 09:45:32;;;;;;;32.55;14.32;;;;;;;3.65;82.06;101596.72;5022275;28;20547;-81
2022/01/11 09:48:01;;;;;;;36.28;13.27;;;;;;;3.66;82.36;101591.44;5018716;28;20052;-81
2022/01/11 09:50:32;;;;;;;42.83;14.73;;;;;;;3.67;82.16;101593.13;5002206;28;20048;-80
2022/01/11 09:53:03;;;;;;;50.85;16.60;;;;;;;3.68;82.00;101594.84;5065417;28;20049;-80
2022/01/11 09:55:36;;;;;;;41.53;14.05;;;;;;;3.67;82.35;101590.50;5009143;28;20379;-81
2022/01/11 09:58:05;;;;;;;37.70;14.77;;;;;;;3.70;82.08;101589.53;5019705;28;20041;-79
2022/01/11 10:00:51;;;;;;;39.50;14.82;;;;;;;3.70;82.45;101586.91;4975356;28;20056;-79
2022/01/11 10:03:58;;;;;;;37.42;14.90;;;;;;;3.64;82.09;101587.13;5021469;28;20057;-79
2022/01/11 10:06:39;;;;;;;40.97;14.20;;;;;;;3.71;82.12;101580.75;4999810;28;20045;-79
2022/01/11 10:09:17;;;;;;;41.30;15.63;;;;;;;3.67;81.88;101587.03;5016987;28;20041;-80
2022/01/11 10:11:53;;;;;;;41.42;16.75;;;;;;;3.73;82.16;101592.06;5019000;28;20041;-80
2022/01/11 10:14:35;;;;;;;41.03;14.55;;;;;;;3.67;82.29;101587.03;5032052;28;20048;-80
2022/01/11 10:17:12;;;;;;;46.15;14.70;;;;;;;3.76;81.95;101585.84;4986472;28;20045;-80
2022/01/11 10:19:43;;;;;;;42.63;15.80;;;;;;;3.73;82.19;101592.06;5027537;28;20719;-80
2022/01/11 10:22:13;;;;;;;40.78;15.63;;;;;;;3.74;82.36;101585.94;4997055;28;20087;-80
2022/01/11 10:24:42;;;;;;;41.88;14.70;;;;;;;3.73;82.56;101589.44;4993766;28;20072;-81
2022/01/11 10:27:33;;;;;;;51.35;15.90;;;;;;;3.77;82.57;101590.22;5009825;28;20050;-80
2022/01/11 10:30:07;;;;;;;48.17;16.27;;;;;;;3.81;82.46;101587.41;5015896;28;20045;-81
2022/01/11 10:32:45;;;;;;;41.38;14.55;;;;;;;3.81;82.44;101594.44;5030650;28;20056;-80
2022/01/11 10:35:31;;;;;;;40.40;15.20;;;;;;;3.80;82.58;101584.88;5024289;28;20091;-81
2022/01/11 10:38:53;;;;;;;34.35;13.88;;;;;;;3.79;82.72;101591.00;4936383;28;20500;-80
2022/01/11 10:41:44;;;;;;;41.58;15.00;;;;;;;3.74;82.40;101591.19;5007609;28;20045;-80
2022/01/11 10:44:43;;;;;;;45.72;14.85;;;;;;;3.77;82.43;101588.44;4977137;28;20503;-80
2022/01/11 10:47:18;;;;;;;46.60;15.00;;;;;;;3.82;82.41;101583.06;5032785;28;20468;-81
2022/01/11 10:49:45;;;;;;;40.17;14.27;;;;;;;3.86;82.47;101579.41;4989121;28;20076;-80
2022/01/11 10:52:15;;;;;;;39.47;14.77;;;;;;;3.87;82.77;101571.47;5029922;28;20802;-81
2022/01/11 10:54:45;;;;;;;38.45;14.07;;;;;;;3.90;82.86;101566.09;5012498;28;20049;-81
2022/01/11 10:57:27;;;;;;;41.33;14.30;;;;;;;3.86;82.88;101569.72;5016165;28;20050;-81
2022/01/11 11:00:04;;;;;;;29.63;11.52;;;;;;;3.88;82.52;101567.94;5014668;28;20049;-81
2022/01/11 11:02:32;;;;;;;35.40;11.63;;;;;;;3.92;82.49;101576.59;5036753;28;20129;-80
2022/01/11 11:05:37;;;;;;;38.97;12.70;;;;;;;3.89;82.21;101566.16;5003667;28;20087;-81
2022/01/11 11:08:20;;;;;;;34.08;13.30;;;;;;;3.95;82.21;101571.22;4946161;28;20095;-81
2022/01/11 11:11:00;;;;;;;36.40;13.43;;;;;;;3.97;82.08;101568.53;5022354;28;20061;-81
2022/01/11 11:13:38;;;;;;;34.28;11.45;;;;;;;3.99;81.84;101567.56;5022034;28;20045;-81
2022/01/11 11:16:09;;;;;;;37.50;13.35;;;;;;;4.05;81.92;101575.25;5002444;28;20045;-81
2022/01/11 11:18:39;;;;;;;30.33;12.20;;;;;;;4.08;81.49;101577.78;5014494;28;20447;-81
2022/01/11 11:21:25;;;;;;;35.72;13.50;;;;;;;4.03;81.17;101571.81;4998216;28;20461;-80
2022/01/11 11:23:57;;;;;;;31.02;12.45;;;;;;;4.05;81.17;101580.53;5030651;28;20503;-79
2022/01/11 11:26:33;;;;;;;33.20;13.30;;;;;;;4.12;80.95;101575.91;5025702;28;20513;-79
2022/01/11 11:28:59;;;;;;;28.05;13.77;;;;;;;4.12;81.03;101575.91;5008087;28;20049;-80
2022/01/11 11:31:36;;;;;;;39.15;14.05;;;;;;;4.15;81.21;101583.69;5019133;28;20383;-82